Time;durP1;ratioP1;P1;durP2;ratioP2;P2;SDS_P1;SDS_P2;PMS_P1;PMS_P2;Temp;Humidity;BMP_temperature;BMP_pressure;BME280_temperature;BME280_humidity;BME280_pressure;Samples;Min_cycle;Max_cycle;Signal;HPM_P1;HPM_P2
2022/04/04 00:00:49;;;;;;;2.83;1.40;;;13.40;62.70;;;;;;3927948;30;20142;-64
2022/04/04 00:03:12;;;;;;;3.85;1.65;;;13.40;62.70;;;;;;3927803;30;20058;-65
2022/04/04 00:05:34;;;;;;;2.97;1.33;;;13.30;62.70;;;;;;3914326;30;20099;-65
2022/04/04 00:07:56;;;;;;;2.92;1.30;;;13.30;63.50;;;;;;3915977;30;20778;-64
2022/04/04 00:10:18;;;;;;;1.58;1.48;;;13.30;62.90;;;;;;3927809;30;20072;-64
2022/04/04 00:12:40;;;;;;;4.53;1.67;;;13.30;62.80;;;;;;3927591;30;20187;-64
2022/04/04 00:15:04;;;;;;;2.58;1.65;;;13.30;62.80;;;;;;3927823;30;20062;-64
2022/04/04 00:17:26;;;;;;;1.90;1.40;;;13.30;62.60;;;;;;3927218;30;20488;-64
2022/04/04 00:19:48;;;;;;;3.13;1.50;;;13.30;62.70;;;;;;3914016;30;20614;-64
2022/04/04 00:22:10;;;;;;;2.03;1.67;;;13.30;62.70;;;;;;3926820;30;20397;-64
2022/04/04 00:24:32;;;;;;;4.95;1.60;;;13.30;62.80;;;;;;3927039;30;20052;-64
2022/04/04 00:26:54;;;;;;;1.65;1.30;;;13.30;62.60;;;;;;3926894;30;20060;-64
2022/04/04 00:29:18;;;;;;;2.60;1.80;;;13.20;62.70;;;;;;3927134;30;20062;-64
2022/04/04 00:31:42;;;;;;;2.38;1.75;;;13.30;62.80;;;;;;3927372;30;20055;-64
2022/04/04 00:34:04;;;;;;;4.15;1.65;;;13.30;62.70;;;;;;3927515;30;20404;-64
2022/04/04 00:36:27;;;;;;;1.55;1.45;;;13.20;62.60;;;;;;3917120;30;20110;-64
2022/04/04 00:38:49;;;;;;;4.05;1.60;;;13.20;62.50;;;;;;3927117;30;20048;-64
2022/04/04 00:41:12;;;;;;;2.13;1.80;;;13.20;62.30;;;;;;3926909;30;20479;-64
2022/04/04 00:43:34;;;;;;;5.53;1.98;;;13.20;62.40;;;;;;3926699;30;20440;-64
2022/04/04 00:45:57;;;;;;;2.22;1.85;;;13.20;62.50;;;;;;3926558;30;20169;-64
2022/04/04 00:48:20;;;;;;;3.55;2.33;;;13.20;62.30;;;;;;3926778;30;20438;-64
2022/04/04 00:50:42;;;;;;;2.53;2.13;;;13.20;62.50;;;;;;3926467;30;20110;-64
2022/04/04 00:53:04;;;;;;;2.08;1.90;;;13.20;62.50;;;;;;3926801;30;20155;-64
2022/04/04 00:55:27;;;;;;;2.15;1.95;;;13.20;62.40;;;;;;3926585;30;20060;-64
2022/04/04 00:57:49;;;;;;;3.38;2.83;;;13.20;62.30;;;;;;3927211;30;20131;-64
2022/04/04 01:00:12;;;;;;;2.85;2.00;;;13.10;62.40;;;;;;3912249;30;20068;-64
2022/04/04 01:02:35;;;;;;;3.17;2.30;;;13.10;62.30;;;;;;3912127;30;20088;-64
2022/04/04 01:04:58;;;;;;;6.15;2.83;;;13.20;62.40;;;;;;3918245;30;20090;-64
2022/04/04 01:07:20;;;;;;;2.22;1.80;;;13.10;62.30;;;;;;3927096;30;20055;-64
2022/04/04 01:09:43;;;;;;;4.65;2.63;;;13.10;62.20;;;;;;3926973;30;20052;-64
2022/04/04 01:12:07;;;;;;;3.75;2.50;;;13.10;62.20;;;;;;3926078;30;20066;-64
2022/04/04 01:14:29;;;;;;;5.40;2.15;;;13.10;62.20;;;;;;3913714;30;20119;-64
2022/04/04 01:16:51;;;;;;;2.17;1.98;;;13.10;62.10;;;;;;3927063;30;20524;-64
2022/04/04 01:19:13;;;;;;;4.72;2.70;;;13.10;62.20;;;;;;3926769;30;20149;-64
2022/04/04 01:21:36;;;;;;;3.10;2.65;;;13.10;62.40;;;;;;3926874;30;20121;-63
2022/04/04 01:24:02;;;;;;;2.35;1.77;;;13.10;62.20;;;;;;3926398;30;20083;-63
2022/04/04 01:26:26;;;;;;;5.40;3.10;;;13.10;62.30;;;;;;3926649;30;20059;-63
2022/04/04 01:28:48;;;;;;;5.72;3.08;;;13.00;62.40;;;;;;3926635;30;20451;-63
2022/04/04 01:31:10;;;;;;;6.55;3.38;;;13.10;62.40;;;;;;3926443;30;20067;-63
2022/04/04 01:33:32;;;;;;;5.22;4.10;;;13.10;62.40;;;;;;3926709;30;20116;-64
2022/04/04 01:35:57;;;;;;;4.43;3.50;;;13.00;62.30;;;;;;3912053;30;20063;-64
2022/04/04 01:38:20;;;;;;;8.40;4.10;;;13.10;62.20;;;;;;3926524;30;20056;-64
2022/04/04 01:40:42;;;;;;;4.80;4.15;;;13.00;62.10;;;;;;3926639;30;20056;-63
2022/04/04 01:43:06;;;;;;;5.40;3.97;;;13.00;62.20;;;;;;3926753;30;20143;-63
2022/04/04 01:48:08;;;;;;;7.75;4.45;;;13.00;61.90;;;;;;3926519;30;20404;-63
2022/04/04 01:50:30;;;;;;;7.78;4.32;;;13.00;62.10;;;;;;3926490;30;20143;-63
2022/04/04 01:53:25;;;;;;;8.57;4.00;;;13.00;62.10;;;;;;3913213;30;20057;-63
2022/04/04 01:55:34;;;;;;;6.90;3.80;;;13.00;62.00;;;;;;3925467;30;20081;-63
2022/04/04 01:57:57;;;;;;;3.67;2.97;;;13.00;62.00;;;;;;3926235;30;20075;-64
2022/04/04 02:00:21;;;;;;;7.75;4.95;;;13.00;61.80;;;;;;3926266;30;20748;-63
2022/04/04 02:02:42;;;;;;;11.40;6.65;;;13.00;61.80;;;;;;3926575;30;20052;-63
2022/04/04 02:05:05;;;;;;;8.65;4.95;;;13.00;61.70;;;;;;3925985;30;20412;-63
2022/04/04 02:07:27;;;;;;;6.45;4.90;;;13.00;61.70;;;;;;3925657;30;20055;-63
2022/04/04 02:09:49;;;;;;;7.05;6.18;;;13.00;61.60;;;;;;3925156;30;20052;-63
2022/04/04 02:12:11;;;;;;;7.93;4.82;;;13.00;61.70;;;;;;3926155;30;20566;-63
2022/04/04 02:14:34;;;;;;;6.05;4.93;;;12.90;61.50;;;;;;3925852;30;20073;-64
2022/04/04 02:16:57;;;;;;;8.93;6.35;;;12.90;61.50;;;;;;3928669;30;20519;-63
2022/04/04 02:19:19;;;;;;;8.27;4.88;;;12.90;61.60;;;;;;3929258;30;20048;-63
2022/04/04 02:21:42;;;;;;;7.07;6.10;;;12.90;61.50;;;;;;3929091;30;20060;-63
2022/04/04 02:24:04;;;;;;;11.48;5.50;;;12.90;61.60;;;;;;3929087;30;20091;-63
2022/04/04 02:26:26;;;;;;;8.05;5.20;;;12.90;61.40;;;;;;3925900;30;20089;-63
2022/04/04 02:28:49;;;;;;;7.90;6.20;;;12.90;61.50;;;;;;3928867;30;20084;-63
2022/04/04 02:31:11;;;;;;;9.43;5.70;;;12.90;61.30;;;;;;3924632;30;20052;-63
2022/04/04 02:33:34;;;;;;;9.73;6.60;;;12.90;61.40;;;;;;3914305;30;20563;-63
2022/04/04 02:35:57;;;;;;;6.65;4.88;;;13.00;61.30;;;;;;3913694;30;20056;-64
2022/04/04 02:38:20;;;;;;;8.95;6.38;;;13.00;61.00;;;;;;3913341;30;20733;-63
2022/04/04 02:40:42;;;;;;;8.85;5.72;;;13.00;60.80;;;;;;3900803;30;20144;-64
2022/04/04 02:43:05;;;;;;;10.52;6.95;;;13.10;60.70;;;;;;3913975;30;20060;-64
2022/04/04 02:45:29;;;;;;;9.75;5.38;;;13.10;60.50;;;;;;3913810;30;20056;-63
2022/04/04 02:47:51;;;;;;;7.43;6.50;;;13.10;60.50;;;;;;3911885;30;20063;-63
2022/04/04 02:50:16;;;;;;;7.30;6.20;;;13.10;60.50;;;;;;3914193;30;20096;-63
2022/04/04 02:52:39;;;;;;;8.88;5.40;;;13.10;61.30;;;;;;3913368;30;20102;-64
2022/04/04 02:56:28;;;;;;;10.75;5.07;;;13.10;60.40;;;;;;3912590;30;20130;-64
2022/04/04 02:57:43;;;;;;;8.43;6.05;;;13.10;60.30;;;;;;3913276;30;20110;-64
2022/04/04 03:00:07;;;;;;;10.80;6.90;;;13.10;60.20;;;;;;3913876;30;20094;-63
2022/04/04 03:02:29;;;;;;;6.03;4.32;;;13.10;60.20;;;;;;3900820;30;20076;-64
2022/04/04 03:04:52;;;;;;;11.25;7.60;;;13.10;60.10;;;;;;3912820;30;20047;-64
2022/04/04 03:07:16;;;;;;;7.38;5.82;;;13.10;60.10;;;;;;3913948;30;20068;-63
2022/04/04 03:09:39;;;;;;;10.35;6.60;;;13.10;60.10;;;;;;3913808;30;20417;-64
2022/04/04 03:12:01;;;;;;;7.38;6.53;;;13.10;60.20;;;;;;3914101;30;20057;-64
2022/04/04 03:14:23;;;;;;;9.60;7.18;;;13.10;60.20;;;;;;3912844;30;20712;-64
2022/04/04 03:16:46;;;;;;;9.55;6.22;;;13.10;60.30;;;;;;3913201;30;20140;-64
2022/04/04 03:19:08;;;;;;;11.27;6.63;;;13.10;60.50;;;;;;3913669;30;20621;-64
2022/04/04 03:21:30;;;;;;;7.82;6.30;;;13.10;60.40;;;;;;3913637;30;20048;-64
2022/04/04 03:23:54;;;;;;;8.10;5.68;;;13.20;60.30;;;;;;3912630;30;20480;-64
2022/04/04 03:26:16;;;;;;;10.18;7.03;;;13.20;60.00;;;;;;3899031;30;20386;-63
2022/04/04 03:28:39;;;;;;;10.40;6.50;;;13.30;59.80;;;;;;3898625;30;20064;-63
2022/04/04 03:31:01;;;;;;;10.55;6.60;;;13.30;59.60;;;;;;3902015;30;20064;-63
2022/04/04 03:33:24;;;;;;;12.00;7.50;;;13.40;59.60;;;;;;3921051;30;20067;-63
2022/04/04 03:35:47;;;;;;;11.23;6.38;;;13.40;59.60;;;;;;3927568;30;20052;-63
2022/04/04 03:38:10;;;;;;;8.93;6.22;;;13.50;59.20;;;;;;3927589;30;20080;-64
2022/04/04 03:40:34;;;;;;;9.52;7.05;;;13.60;59.00;;;;;;3927992;30;20060;-64
2022/04/04 03:42:58;;;;;;;12.55;7.13;;;13.60;58.80;;;;;;3927709;30;20489;-63
2022/04/04 03:45:21;;;;;;;12.95;7.30;;;13.70;58.70;;;;;;3927610;30;20066;-63
2022/04/04 03:47:44;;;;;;;9.90;7.60;;;13.70;58.60;;;;;;3927455;30;20090;-63
2022/04/04 03:50:08;;;;;;;11.75;7.20;;;13.70;58.60;;;;;;3927080;30;20071;-63
2022/04/04 03:52:30;;;;;;;10.25;7.35;;;13.70;58.70;;;;;;3927295;30;20067;-63
2022/04/04 03:54:52;;;;;;;10.75;6.82;;;13.70;58.60;;;;;;3927809;30;20527;-64
2022/04/04 03:57:16;;;;;;;14.63;8.13;;;13.70;58.50;;;;;;3927729;30;20500;-64
2022/04/04 03:59:38;;;;;;;9.98;6.95;;;13.70;58.40;;;;;;3928000;30;20117;-64
2022/04/04 04:02:00;;;;;;;12.32;7.50;;;13.70;58.40;;;;;;3927494;30;20459;-64
2022/04/04 04:04:22;;;;;;;11.30;8.02;;;13.80;59.10;;;;;;3927434;30;20068;-63
2022/04/04 04:06:45;;;;;;;8.13;5.95;;;13.80;58.30;;;;;;3927834;30;20052;-64
2022/04/04 04:09:07;;;;;;;13.07;7.13;;;13.80;58.20;;;;;;3927930;30;20062;-63
2022/04/04 04:11:29;;;;;;;10.20;8.00;;;13.80;58.20;;;;;;3927245;30;20165;-63
2022/04/04 04:13:53;;;;;;;8.07;4.68;;;13.80;58.10;;;;;;3927312;30;20138;-64
2022/04/04 04:16:15;;;;;;;11.30;7.82;;;13.80;58.00;;;;;;3927738;30;20109;-64
2022/04/04 04:18:38;;;;;;;14.70;7.60;;;13.90;58.10;;;;;;3927485;30;20101;-63
2022/04/04 04:21:00;;;;;;;15.95;7.65;;;13.90;58.10;;;;;;3927494;30;20063;-63
2022/04/04 04:23:22;;;;;;;10.20;6.78;;;13.90;58.10;;;;;;3927096;30;20141;-64
2022/04/04 04:25:45;;;;;;;11.18;6.57;;;13.80;58.00;;;;;;3927613;30;20471;-64
2022/04/04 04:28:09;;;;;;;12.48;8.38;;;13.80;58.10;;;;;;3914089;30;20110;-64
2022/04/04 04:30:33;;;;;;;10.90;8.13;;;13.80;58.20;;;;;;3927234;30;20091;-64
2022/04/04 04:32:55;;;;;;;7.78;5.70;;;13.80;58.30;;;;;;3927067;30;20047;-64
2022/04/04 04:35:18;;;;;;;19.23;7.38;;;13.70;58.40;;;;;;3914066;30;20068;-64
2022/04/04 04:37:41;;;;;;;13.10;7.53;;;13.70;58.50;;;;;;3913667;30;20079;-64
2022/04/04 04:40:04;;;;;;;11.65;7.60;;;13.60;58.60;;;;;;3926343;30;20048;-64
2022/04/04 04:42:26;;;;;;;16.75;8.35;;;13.60;58.80;;;;;;3926107;30;20114;-64
2022/04/04 04:44:48;;;;;;;7.78;5.45;;;13.70;58.80;;;;;;3926797;30;20474;-64
2022/04/04 04:47:12;;;;;;;10.52;7.13;;;13.70;58.70;;;;;;3927451;30;20048;-64
2022/04/04 04:49:34;;;;;;;10.52;7.10;;;13.70;58.70;;;;;;3914021;30;20110;-64
2022/04/04 04:51:57;;;;;;;8.90;7.07;;;13.70;58.60;;;;;;3926301;30;21432;-64
2022/04/04 04:54:19;;;;;;;9.82;7.15;;;13.80;58.60;;;;;;3913935;30;20141;-63
2022/04/04 04:56:41;;;;;;;11.35;7.40;;;13.80;58.50;;;;;;3926858;30;20059;-64
2022/04/04 04:59:04;;;;;;;11.80;7.43;;;13.80;58.50;;;;;;3926982;30;20117;-64
2022/04/04 05:01:26;;;;;;;12.07;7.50;;;13.80;58.50;;;;;;3926489;30;20059;-63
2022/04/04 05:03:51;;;;;;;8.57;6.72;;;13.80;58.60;;;;;;3913098;30;20135;-63
2022/04/04 05:06:12;;;;;;;13.05;8.48;;;13.80;58.70;;;;;;3926437;30;20060;-64
2022/04/04 05:08:35;;;;;;;10.40;7.28;;;13.80;58.70;;;;;;3926563;30;20066;-63
2022/04/04 05:10:57;;;;;;;6.97;5.72;;;13.80;58.70;;;;;;3927089;30;20470;-63
2022/04/04 05:13:19;;;;;;;10.43;7.20;;;13.80;58.60;;;;;;3926092;30;20467;-64
2022/04/04 05:15:42;;;;;;;12.02;6.80;;;13.80;58.60;;;;;;3926717;30;20094;-63
2022/04/04 05:18:05;;;;;;;14.77;7.75;;;13.80;58.60;;;;;;3927006;30;20847;-63
2022/04/04 05:20:29;;;;;;;8.10;6.80;;;13.80;58.60;;;;;;3915172;30;20059;-64
2022/04/04 05:22:51;;;;;;;9.40;6.65;;;13.80;58.70;;;;;;3925792;30;20155;-64
2022/04/04 05:25:15;;;;;;;9.38;7.88;;;13.80;58.90;;;;;;3927601;30;20059;-64
2022/04/04 05:27:37;;;;;;;14.35;6.38;;;13.80;58.90;;;;;;3925891;30;20131;-64
2022/04/04 05:30:00;;;;;;;11.23;6.35;;;13.80;58.90;;;;;;3926692;30;20086;-65
2022/04/04 05:32:22;;;;;;;10.93;6.88;;;13.80;58.80;;;;;;3921891;30;20413;-63
2022/04/04 05:34:44;;;;;;;12.68;8.05;;;13.80;58.90;;;;;;3926285;30;20060;-64
2022/04/04 05:37:08;;;;;;;12.45;6.82;;;13.80;58.90;;;;;;3925572;30;20484;-64
2022/04/04 05:39:30;;;;;;;15.77;8.85;;;13.80;59.00;;;;;;3912531;30;20064;-64
2022/04/04 05:41:53;;;;;;;9.93;7.82;;;13.70;59.10;;;;;;3925814;30;20052;-72
2022/04/04 05:44:16;;;;;;;9.23;6.70;;;13.70;59.30;;;;;;3926118;30;20053;-63
2022/04/04 05:46:38;;;;;;;8.20;7.00;;;13.70;59.80;;;;;;3926578;30;20394;-63
2022/04/04 05:49:01;;;;;;;10.27;6.72;;;13.70;60.00;;;;;;3926956;30;22593;-63
2022/04/04 05:51:23;;;;;;;10.70;7.47;;;13.70;59.90;;;;;;3928588;30;20416;-63
2022/04/04 05:53:46;;;;;;;7.47;6.13;;;13.70;59.90;;;;;;3929856;30;20121;-63
2022/04/04 05:56:08;;;;;;;12.48;7.78;;;13.70;59.90;;;;;;3933199;30;20493;-64
2022/04/04 05:58:31;;;;;;;11.82;7.47;;;13.70;60.10;;;;;;3927217;30;20052;-63
2022/04/04 06:00:53;;;;;;;8.18;6.30;;;13.70;60.30;;;;;;3927695;30;20087;-63
2022/04/04 06:03:16;;;;;;;10.57;5.63;;;13.90;61.00;;;;;;3914647;30;20539;-63
2022/04/04 06:05:38;;;;;;;7.03;5.70;;;14.30;59.30;;;;;;3917337;30;20048;-63
2022/04/04 06:08:00;;;;;;;12.20;6.82;;;14.90;58.10;;;;;;3924132;30;20077;-63
2022/04/04 06:10:23;;;;;;;9.80;5.57;;;15.50;56.80;;;;;;3920165;30;20408;-63
2022/04/04 06:12:46;;;;;;;8.45;4.95;;;16.10;55.20;;;;;;3943912;30;20133;-63
2022/04/04 06:15:10;;;;;;;10.10;5.20;;;16.70;53.80;;;;;;3942638;30;20078;-63
2022/04/04 06:17:32;;;;;;;7.28;4.35;;;17.30;52.60;;;;;;3928761;30;20052;-64
2022/04/04 06:19:55;;;;;;;7.53;4.38;;;17.70;51.40;;;;;;3928115;30;20064;-65
2022/04/04 06:22:17;;;;;;;9.18;5.10;;;18.00;50.90;;;;;;3914561;30;20072;-64
2022/04/04 06:24:39;;;;;;;10.07;4.63;;;18.10;50.50;;;;;;3928644;30;20067;-64
2022/04/04 06:27:03;;;;;;;8.27;3.90;;;18.10;50.40;;;;;;3929983;30;20499;-64
2022/04/04 06:29:25;;;;;;;7.57;4.10;;;18.00;50.60;;;;;;3942388;30;20063;-64
2022/04/04 06:31:47;;;;;;;4.80;3.75;;;17.90;50.90;;;;;;3924793;30;20414;-65
2022/04/04 06:34:10;;;;;;;4.50;3.50;;;17.70;51.20;;;;;;3911624;30;20147;-64
2022/04/04 06:36:32;;;;;;;7.80;3.28;;;17.50;51.70;;;;;;3911577;30;20049;-64
2022/04/04 06:38:55;;;;;;;5.10;2.10;;;17.30;52.20;;;;;;3911277;30;20147;-65
2022/04/04 06:41:18;;;;;;;5.22;2.50;;;17.10;52.60;;;;;;3897895;30;20056;-64
2022/04/04 06:43:41;;;;;;;2.90;1.88;;;16.90;53.10;;;;;;3898023;30;20091;-64
2022/04/04 06:46:05;;;;;;;2.88;2.13;;;16.80;53.60;;;;;;3910396;30;20147;-65
2022/04/04 06:48:28;;;;;;;5.07;2.17;;;16.80;53.90;;;;;;3911223;30;20150;-64
2022/04/04 06:50:50;;;;;;;3.33;2.28;;;16.80;53.90;;;;;;3911382;30;20630;-64
2022/04/04 06:53:12;;;;;;;3.33;2.03;;;16.80;53.80;;;;;;3911551;30;20065;-64
2022/04/04 06:55:38;;;;;;;2.72;2.25;;;16.80;53.70;;;;;;3911369;30;20083;-64
2022/04/04 06:58:00;;;;;;;3.78;2.33;;;16.90;53.60;;;;;;3911836;30;20053;-64
2022/04/04 07:00:24;;;;;;;6.30;2.75;;;16.90;53.40;;;;;;3910880;30;20749;-63
2022/04/04 07:02:47;;;;;;;2.40;1.70;;;16.90;53.30;;;;;;3910332;30;20059;-64
2022/04/04 07:05:10;;;;;;;4.03;2.00;;;17.00;53.30;;;;;;3898019;30;20079;-64
2022/04/04 07:07:33;;;;;;;3.25;1.90;;;17.00;53.20;;;;;;3907937;30;20064;-65
2022/04/04 07:09:56;;;;;;;2.67;1.98;;;17.10;53.10;;;;;;3911246;30;20063;-64
2022/04/04 07:12:22;;;;;;;2.90;2.00;;;17.10;53.10;;;;;;3910250;30;20072;-65
2022/04/04 07:14:44;;;;;;;4.68;2.42;;;17.10;53.20;;;;;;3911022;30;20061;-64
2022/04/04 07:17:09;;;;;;;2.22;1.92;;;17.00;53.50;;;;;;3911483;30;20060;-64
2022/04/04 07:19:33;;;;;;;2.30;1.90;;;16.90;53.70;;;;;;3910006;30;20056;-65
2022/04/04 07:21:55;;;;;;;4.28;2.10;;;16.90;54.10;;;;;;3910648;30;20563;-65
2022/04/04 07:24:18;;;;;;;4.78;1.77;;;16.80;54.40;;;;;;3911540;30;20048;-64
2022/04/04 07:26:40;;;;;;;4.18;2.20;;;16.70;54.70;;;;;;3910878;30;20118;-65
2022/04/04 07:29:02;;;;;;;3.95;2.70;;;16.70;54.80;;;;;;3911254;30;20067;-65
2022/04/04 07:31:25;;;;;;;3.60;2.72;;;16.60;54.90;;;;;;3912669;30;20052;-65
2022/04/04 07:33:49;;;;;;;4.45;2.65;;;16.70;55.10;;;;;;3924350;30;20062;-65
2022/04/04 07:36:11;;;;;;;3.47;2.83;;;16.70;55.10;;;;;;3924586;30;20075;-65
2022/04/04 07:38:34;;;;;;;5.05;2.83;;;16.80;55.00;;;;;;3924534;30;20129;-65
2022/04/04 07:40:56;;;;;;;5.43;2.90;;;16.80;54.90;;;;;;3924927;30;20395;-65
2022/04/04 07:43:19;;;;;;;3.88;3.17;;;16.80;55.50;;;;;;3914877;30;20104;-65
2022/04/04 07:45:42;;;;;;;5.65;3.53;;;16.80;54.90;;;;;;3922903;30;20060;-64
2022/04/04 07:48:06;;;;;;;4.60;2.75;;;16.70;55.20;;;;;;3923798;30;20091;-65
2022/04/04 07:50:30;;;;;;;5.43;3.65;;;16.70;55.30;;;;;;3924636;30;20057;-66
2022/04/04 07:52:52;;;;;;;6.72;3.40;;;16.80;55.40;;;;;;3923795;30;20052;-66
2022/04/04 07:55:15;;;;;;;12.60;3.80;;;16.80;55.40;;;;;;3923269;30;20995;-65
2022/04/04 07:57:37;;;;;;;2.83;2.63;;;16.90;55.30;;;;;;3924656;30;20068;-66
2022/04/04 08:00:00;;;;;;;3.92;2.83;;;17.00;55.20;;;;;;3915315;30;20075;-65
2022/04/04 08:02:27;;;;;;;6.22;3.55;;;17.00;55.00;;;;;;3923629;30;20071;-65
2022/04/04 08:04:50;;;;;;;3.47;2.65;;;17.00;54.70;;;;;;3924350;30;20135;-65
2022/04/04 08:07:15;;;;;;;5.47;3.25;;;17.10;54.70;;;;;;3924305;30;20075;-66
2022/04/04 08:09:37;;;;;;;4.65;3.30;;;17.00;54.70;;;;;;3923879;30;20408;-65
2022/04/04 08:11:59;;;;;;;3.75;2.58;;;17.00;54.80;;;;;;3905769;30;20060;-66
2022/04/04 08:14:22;;;;;;;3.15;2.67;;;16.90;55.00;;;;;;3910832;30;20122;-65
2022/04/04 08:16:45;;;;;;;3.30;2.08;;;16.90;55.10;;;;;;3923325;30;20063;-65
2022/04/04 08:19:07;;;;;;;4.47;3.00;;;16.80;55.40;;;;;;3923158;30;20063;-66
2022/04/04 08:21:29;;;;;;;4.07;2.58;;;16.60;55.70;;;;;;3922889;30;20064;-65
2022/04/04 08:23:55;;;;;;;2.40;2.10;;;16.60;56.00;;;;;;3924398;30;20091;-65
2022/04/04 08:26:17;;;;;;;4.10;2.80;;;16.50;56.10;;;;;;3922703;30;20056;-65
2022/04/04 08:28:40;;;;;;;5.85;3.45;;;16.50;56.30;;;;;;3924568;30;20075;-65
2022/04/04 08:31:02;;;;;;;2.47;2.28;;;16.50;56.30;;;;;;3924036;30;20429;-66
2022/04/04 08:33:27;;;;;;;2.60;2.40;;;16.60;56.40;;;;;;3908900;30;20068;-65
2022/04/04 08:35:53;;;;;;;2.10;2.00;;;16.60;56.40;;;;;;3908433;30;20131;-66
2022/04/04 08:38:15;;;;;;;3.35;2.65;;;16.60;56.30;;;;;;3909469;30;20142;-68
2022/04/04 08:40:39;;;;;;;2.45;2.35;;;16.60;56.20;;;;;;3909507;30;20492;-66
2022/04/04 08:43:03;;;;;;;3.22;1.90;;;16.60;56.40;;;;;;3903486;30;20053;-65
2022/04/04 08:45:25;;;;;;;3.05;2.00;;;16.50;56.70;;;;;;3909254;30;20059;-65
2022/04/04 08:47:48;;;;;;;3.60;1.40;;;16.60;56.90;;;;;;3909939;30;20079;-65
2022/04/04 08:50:11;;;;;;;1.90;1.80;;;16.60;57.20;;;;;;3909389;30;20056;-65
2022/04/04 08:52:34;;;;;;;2.65;1.58;;;16.70;57.30;;;;;;3895637;30;20061;-65
2022/04/04 08:54:56;;;;;;;3.55;2.20;;;16.70;57.80;;;;;;3908748;30;20057;-66
2022/04/04 08:57:20;;;;;;;1.70;1.60;;;16.70;56.90;;;;;;3909290;30;20056;-66
2022/04/04 08:59:43;;;;;;;1.98;1.60;;;16.80;56.90;;;;;;3909770;30;20068;-65
2022/04/04 09:02:06;;;;;;;3.25;1.63;;;16.80;56.80;;;;;;3907364;30;20059;-65
2022/04/04 09:04:29;;;;;;;5.80;1.70;;;16.80;56.50;;;;;;3908442;30;20147;-65
2022/04/04 09:06:53;;;;;;;2.35;1.45;;;16.80;56.40;;;;;;3908198;30;20492;-65
2022/04/04 09:09:25;;;;;;;4.82;1.50;;;16.80;56.40;;;;;;3908150;30;20496;-65
2022/04/04 09:12:05;;;;;;;2.00;1.58;;;16.80;56.40;;;;;;3908057;30;20064;-65
2022/04/04 09:14:29;;;;;;;1.80;1.40;;;16.80;56.50;;;;;;3908135;30;20068;-65
2022/04/04 09:16:56;;;;;;;1.40;1.30;;;16.70;56.60;;;;;;3909376;30;20053;-65
2022/04/04 09:19:29;;;;;;;1.80;1.35;;;16.60;56.80;;;;;;3905913;30;20405;-67
2022/04/04 09:21:51;;;;;;;1.70;1.48;;;16.50;57.00;;;;;;3908681;30;20061;-64
2022/04/04 09:24:17;;;;;;;3.25;1.63;;;16.50;57.10;;;;;;3909321;30;20053;-64
2022/04/04 09:26:42;;;;;;;1.65;1.33;;;16.50;57.10;;;;;;3911581;30;20083;-65
2022/04/04 09:29:08;;;;;;;2.10;1.52;;;16.50;57.10;;;;;;3911524;30;20065;-65
2022/04/04 09:31:31;;;;;;;2.25;1.15;;;16.50;57.00;;;;;;3898829;30;20144;-65
2022/04/04 09:33:57;;;;;;;2.42;1.30;;;16.60;56.90;;;;;;3911373;30;20060;-64
2022/04/04 09:36:23;;;;;;;2.25;1.40;;;16.60;56.80;;;;;;3911989;30;20160;-65
2022/04/04 09:38:55;;;;;;;1.75;1.20;;;16.70;56.80;;;;;;3910288;30;20540;-65
2022/04/04 09:41:21;;;;;;;2.30;1.00;;;16.70;57.60;;;;;;3910207;30;20056;-65
2022/04/04 09:43:50;;;;;;;2.78;1.40;;;16.60;56.90;;;;;;3911273;30;20519;-63
2022/04/04 09:46:13;;;;;;;1.10;1.00;;;16.60;56.90;;;;;;3897834;30;20068;-64
2022/04/04 09:48:36;;;;;;;5.35;1.42;;;16.60;56.80;;;;;;3911211;30;20060;-64
2022/04/04 09:50:58;;;;;;;3.92;1.33;;;16.60;56.50;;;;;;3912011;30;20481;-65
2022/04/04 09:53:22;;;;;;;1.73;1.20;;;16.60;56.00;;;;;;3910759;30;20126;-64
2022/04/04 09:55:46;;;;;;;1.25;1.10;;;16.60;56.00;;;;;;3911920;30;20066;-63
2022/04/04 09:58:11;;;;;;;1.55;1.20;;;16.50;56.00;;;;;;3901773;30;20056;-64
2022/04/04 10:00:35;;;;;;;2.97;0.98;;;16.50;56.20;;;;;;3910257;30;20057;-64
2022/04/04 10:02:59;;;;;;;2.65;1.00;;;16.40;56.30;;;;;;3911429;30;20056;-64
2022/04/04 10:05:24;;;;;;;2.47;1.98;;;16.40;56.30;;;;;;3911976;30;20060;-64
2022/04/04 10:07:47;;;;;;;5.13;1.85;;;16.40;56.40;;;;;;3911181;30;20090;-65
2022/04/04 10:10:09;;;;;;;9.35;2.88;;;16.40;56.50;;;;;;3897831;30;20544;-64
2022/04/04 10:12:34;;;;;;;1.73;1.60;;;16.40;56.40;;;;;;3911930;30;20164;-67
2022/04/04 10:14:57;;;;;;;2.05;1.67;;;16.50;57.00;;;;;;3911616;30;20161;-64
2022/04/04 10:17:20;;;;;;;2.03;1.83;;;16.50;56.30;;;;;;3910973;30;20059;-64
2022/04/04 10:19:43;;;;;;;4.25;1.90;;;16.60;56.90;;;;;;3911234;30;20056;-64
2022/04/04 10:22:07;;;;;;;4.00;1.55;;;16.60;56.00;;;;;;3911399;30;20185;-65
2022/04/04 10:24:30;;;;;;;2.47;2.28;;;16.70;55.90;;;;;;3911811;30;20060;-64
2022/04/04 10:26:52;;;;;;;3.50;3.15;;;16.70;55.70;;;;;;3911494;30;20056;-63
2022/04/04 10:29:16;;;;;;;3.17;2.00;;;16.70;55.60;;;;;;3911028;30;20578;-65
2022/04/04 10:31:50;;;;;;;2.78;1.50;;;16.70;55.60;;;;;;3914527;30;20060;-64
2022/04/04 10:34:15;;;;;;;2.95;1.70;;;16.60;55.70;;;;;;3924771;30;20073;-65
2022/04/04 10:36:37;;;;;;;2.05;1.40;;;16.60;55.80;;;;;;3924966;30;20125;-64
2022/04/04 10:39:01;;;;;;;2.28;1.73;;;16.50;56.00;;;;;;3925734;30;20052;-64
2022/04/04 10:41:27;;;;;;;1.25;1.13;;;16.40;56.30;;;;;;3925576;30;20052;-64
2022/04/04 10:43:51;;;;;;;4.88;2.65;;;16.40;56.40;;;;;;3925331;30;20056;-63
2022/04/04 10:46:15;;;;;;;4.57;1.90;;;16.30;56.50;;;;;;3925194;30;20060;-64
2022/04/04 10:48:40;;;;;;;1.17;1.08;;;16.30;56.60;;;;;;3926067;30;20059;-63
2022/04/04 10:51:15;;;;;;;1.27;1.17;;;16.20;57.60;;;;;;3925811;30;20147;-64
2022/04/04 10:53:41;;;;;;;3.85;1.40;;;16.10;57.10;;;;;;3925301;30;20149;-64
2022/04/04 10:56:06;;;;;;;2.38;1.27;;;16.10;57.20;;;;;;3924854;30;20060;-64
2022/04/04 10:58:29;;;;;;;2.00;1.00;;;16.10;57.10;;;;;;3925261;30;20060;-64
2022/04/04 11:01:07;;;;;;;1.65;1.52;;;16.10;57.00;;;;;;3924685;30;20680;-63
2022/04/04 11:03:35;;;;;;;2.05;1.27;;;16.20;57.10;;;;;;3925214;30;20480;-63
2022/04/04 11:08:39;;;;;;;0.93;0.70;;;16.30;56.90;;;;;;3924602;30;20064;-64
2022/04/04 11:11:04;;;;;;;1.15;1.05;;;16.20;57.00;;;;;;3924859;30;20584;-68
2022/04/04 11:13:26;;;;;;;1.65;0.68;;;16.20;57.20;;;;;;3924695;30;20171;-64
2022/04/04 11:15:53;;;;;;;2.20;1.10;;;16.20;57.30;;;;;;3924894;30;20056;-64
2022/04/04 11:18:16;;;;;;;1.90;0.77;;;16.30;58.10;;;;;;3924783;30;20751;-64
2022/04/04 11:20:48;;;;;;;1.60;0.90;;;16.40;57.30;;;;;;3911244;30;20135;-65
2022/04/04 11:23:11;;;;;;;;;;;16.50;57.40;;;;;;3910623;30;20061;-59
2022/04/04 11:25:35;;;;;;;1.55;1.25;;;16.60;57.40;;;;;;3924932;30;20313;-68
2022/04/04 11:27:59;;;;;;;1.08;0.85;;;16.60;57.20;;;;;;3924594;30;20060;-66
2022/04/04 11:30:24;;;;;;;0.95;0.70;;;16.70;57.10;;;;;;3923473;30;20119;-67
2022/04/04 11:32:49;;;;;;;0.65;0.65;;;16.80;56.70;;;;;;3911504;30;20056;-64
2022/04/04 11:35:15;;;;;;;0.68;0.63;;;16.80;56.60;;;;;;3910857;30;20572;-69
2022/04/04 11:37:46;;;;;;;0.93;0.70;;;16.80;56.50;;;;;;3921459;30;20082;-61
2022/04/04 11:40:13;;;;;;;1.15;0.88;;;16.80;56.50;;;;;;3923608;30;20052;-61
2022/04/04 11:42:42;;;;;;;1.80;0.52;;;16.80;56.70;;;;;;3924280;30;20056;-61
2022/04/04 11:45:08;;;;;;;1.25;0.60;;;16.80;56.70;;;;;;3924389;30;20064;-64
2022/04/04 11:47:32;;;;;;;2.03;0.65;;;16.70;56.80;;;;;;3921887;30;20063;-67
2022/04/04 11:49:58;;;;;;;0.82;0.82;;;16.70;57.00;;;;;;3924429;30;20064;-64
2022/04/04 11:52:24;;;;;;;0.73;0.73;;;16.70;57.10;;;;;;3924478;30;21214;-63
2022/04/04 11:54:49;;;;;;;0.50;0.50;;;16.70;57.10;;;;;;3911254;30;20067;-64
2022/04/04 11:57:12;;;;;;;1.55;0.77;;;16.70;57.20;;;;;;3923623;30;20047;-64
2022/04/04 11:59:41;;;;;;;0.65;0.40;;;16.60;57.50;;;;;;3924374;30;20537;-65
2022/04/04 12:02:09;;;;;;;0.47;0.47;;;16.60;57.50;;;;;;3924285;30;20486;-65
2022/04/04 12:04:32;;;;;;;0.77;0.22;;;16.50;57.60;;;;;;3889059;30;20052;-64
2022/04/04 12:06:55;;;;;;;1.75;0.47;;;16.50;57.60;;;;;;3885455;30;20068;-67
2022/04/04 12:09:30;;;;;;;1.85;0.45;;;16.50;57.80;;;;;;3910672;30;20430;-65
2022/04/04 12:12:01;;;;;;;0.90;0.70;;;16.40;57.90;;;;;;3911311;30;20057;-65
2022/04/04 12:14:33;;;;;;;1.10;0.38;;;16.40;57.80;;;;;;3916802;30;20055;-65
2022/04/04 12:16:56;;;;;;;1.25;0.32;;;16.50;57.80;;;;;;3892615;30;20117;-68
2022/04/04 12:19:26;;;;;;;2.38;0.40;;;16.50;57.80;;;;;;3911878;30;20077;-64
2022/04/04 12:21:49;;;;;;;0.63;0.50;;;16.50;57.80;;;;;;3923827;30;20051;-64
2022/04/04 12:27:10;;;;;;;0.20;0.20;;;16.50;57.60;;;;;;3923147;30;20116;-63
2022/04/04 12:29:40;;;;;;;1.75;0.50;;;16.50;57.60;;;;;;3923495;30;20126;-63
2022/04/04 12:32:03;;;;;;;0.47;0.30;;;16.50;57.70;;;;;;3923899;30;20051;-64
2022/04/04 12:34:27;;;;;;;0.30;0.30;;;16.50;57.60;;;;;;3924492;30;20481;-64